Time;durP1;ratioP1;P1;durP2;ratioP2;P2;SDS_P1;SDS_P2;PMS_P1;PMS_P2;Temp;Humidity;BMP_temperature;BMP_pressure;BME280_temperature;BME280_humidity;BME280_pressure;Samples;Min_cycle;Max_cycle;Signal;HPM_P1;HPM_P2
2022/12/15 00:39:31;;;;;;;12.20;10.97;;;;;;;-6.24;83.39;99746.28;5094369;28;20210;-75
2022/12/15 00:41:59;;;;;;;13.43;11.67;;;;;;;-6.26;83.81;99754.66;5093921;28;20587;-75
2022/12/15 00:44:25;;;;;;;12.70;11.50;;;;;;;-6.17;83.65;99744.81;5094107;28;20212;-75
2022/12/15 00:46:54;;;;;;;14.23;12.20;;;;;;;-6.20;83.52;99737.97;5093912;28;20224;-75
2022/12/15 01:22:10;;;;;;;14.80;11.13;;;;;;;-5.96;83.25;99737.13;5093303;28;20707;-75
2022/12/15 01:24:37;;;;;;;12.07;10.87;;;;;;;-5.97;83.24;99749.75;5093577;28;20204;-76
2022/12/15 01:27:03;;;;;;;12.53;11.10;;;;;;;-5.97;83.20;99742.13;5093384;28;20231;-76
2022/12/15 01:29:31;;;;;;;12.50;11.30;;;;;;;-5.91;83.24;99743.19;5093348;28;20577;-76
2022/12/15 01:31:58;;;;;;;14.30;11.33;;;;;;;-5.88;83.14;99734.81;5093061;28;20200;-75
2022/12/15 01:34:24;;;;;;;12.03;10.77;;;;;;;-5.91;83.24;99748.25;5093078;28;20200;-75
2022/12/15 01:36:50;;;;;;;11.70;10.53;;;;;;;-5.98;83.10;99756.53;5093229;28;20235;-75
2022/12/15 01:39:17;;;;;;;12.17;10.53;;;;;;;-5.91;82.65;99760.09;5092515;28;20204;-75
2022/12/15 01:41:42;;;;;;;14.77;11.00;;;;;;;-5.88;82.70;99766.16;5092699;28;20222;-76
2022/12/15 01:44:18;;;;;;;14.13;11.33;;;;;;;-5.84;83.08;99774.78;5093383;28;20210;-75
2022/12/15 01:46:48;;;;;;;12.03;10.87;;;;;;;-5.81;82.24;99780.84;5092714;28;20200;-75
2022/12/15 01:49:17;;;;;;;13.00;10.67;;;;;;;-5.91;82.30;99786.38;5093005;28;20219;-75
2022/12/15 01:51:48;;;;;;;11.87;10.70;;;;;;;-5.88;83.12;99781.41;5092661;28;20200;-75
2022/12/15 01:54:17;;;;;;;12.23;10.83;;;;;;;-5.92;82.96;99784.66;5092949;28;20208;-75
2022/12/15 01:56:47;;;;;;;11.33;10.13;;;;;;;-5.86;82.34;99787.41;5092644;28;20573;-75
2022/12/15 01:59:18;;;;;;;12.43;10.87;;;;;;;-5.84;81.94;99798.50;5092812;28;20215;-75
2022/12/15 02:01:46;;;;;;;10.87;9.77;;;;;;;-5.84;82.16;99808.66;5092715;28;20212;-75
2022/12/15 02:04:14;;;;;;;12.03;10.93;;;;;;;-5.82;81.85;99821.44;5092825;28;20248;-75
2022/12/15 02:06:41;;;;;;;12.00;10.80;;;;;;;-5.83;81.89;99825.66;5092576;28;20633;-75
2022/12/15 02:09:08;;;;;;;12.60;11.20;;;;;;;-5.87;81.89;99831.41;5092874;28;20215;-75
2022/12/15 02:11:56;;;;;;;12.10;10.80;;;;;;;-5.95;82.28;99826.91;5092436;28;20215;-76
2022/12/15 02:14:35;;;;;;;13.03;10.63;;;;;;;-5.99;82.19;99829.31;5092783;28;20258;-76
2022/12/15 02:17:16;;;;;;;12.00;10.73;;;;;;;-5.96;82.88;99827.72;5092745;28;20224;-76
2022/12/15 02:20:29;;;;;;;12.43;10.60;;;;;;;-6.12;82.82;99822.06;5092323;28;20215;-76
2022/12/15 02:23:26;;;;;;;10.63;9.63;;;;;;;-6.15;83.22;99806.69;5092896;28;20209;-76
2022/12/15 02:26:24;;;;;;;13.10;10.20;;;;;;;-6.07;83.23;99805.31;5092394;28;20215;-76
2022/12/15 02:29:04;;;;;;;10.13;9.23;;;;;;;-6.12;83.07;99799.19;5092356;28;20571;-75
2022/12/15 02:31:50;;;;;;;13.77;9.80;;;;;;;-6.17;83.02;99800.69;5092062;28;20553;-76
2022/12/15 02:34:25;;;;;;;11.73;10.07;;;;;;;-5.92;82.75;99806.66;5092643;28;20211;-76
2022/12/15 02:36:57;;;;;;;11.80;10.60;;;;;;;-5.77;82.57;99817.38;5092272;28;20592;-75
2022/12/15 02:39:25;;;;;;;11.60;10.37;;;;;;;-5.66;81.60;99836.44;5092154;28;20204;-75
2022/12/15 02:41:52;;;;;;;11.63;10.43;;;;;;;-5.50;80.98;99842.94;5091897;28;20224;-76
2022/12/15 02:44:22;;;;;;;12.93;10.97;;;;;;;-5.37;79.92;99877.31;5092083;28;20211;-76
2022/12/15 02:47:13;;;;;;;12.57;11.00;;;;;;;-5.26;78.70;99903.13;5091778;28;20231;-75
2022/12/15 02:49:49;;;;;;;12.73;11.13;;;;;;;-5.26;79.55;99936.19;5091716;28;20211;-76
2022/12/15 02:52:28;;;;;;;14.83;10.53;;;;;;;-5.19;78.86;99954.28;5091824;28;20203;-75
2022/12/15 02:55:09;;;;;;;12.70;11.00;;;;;;;-5.18;79.23;99970.41;5092277;28;20208;-76
2022/12/15 02:57:45;;;;;;;12.57;11.27;;;;;;;-5.16;80.12;99970.47;5092032;28;20224;-76
2022/12/15 03:00:13;;;;;;;11.77;10.57;;;;;;;-5.16;80.65;99971.31;5091898;28;20207;-76
2022/12/15 03:02:45;;;;;;;12.63;11.10;;;;;;;-5.24;81.06;99954.91;5091704;28;20588;-76
2022/12/15 03:05:13;;;;;;;13.53;11.53;;;;;;;-5.26;80.91;99949.75;5091698;28;20200;-76
2022/12/15 03:07:41;;;;;;;14.40;10.57;;;;;;;-5.24;81.03;99943.06;5091725;28;20228;-76
2022/12/15 03:10:10;;;;;;;11.23;10.13;;;;;;;-5.39;80.89;99948.47;5091774;28;20200;-75
2022/12/15 03:12:36;;;;;;;11.83;10.70;;;;;;;-5.52;81.35;99943.72;5091878;28;20211;-76
2022/12/15 03:15:03;;;;;;;13.23;10.57;;;;;;;-5.53;81.33;99933.47;5091716;28;20211;-76
2022/12/15 03:17:29;;;;;;;12.90;11.60;;;;;;;-5.59;82.03;99922.28;5091611;28;20228;-75
2022/12/15 03:19:57;;;;;;;16.37;12.20;;;;;;;-5.59;82.03;99912.13;5091221;28;20703;-76
2022/12/15 03:22:30;;;;;;;11.97;10.87;;;;;;;-5.64;82.22;99900.91;5091742;28;20231;-75
2022/12/15 03:24:57;;;;;;;11.80;10.70;;;;;;;-5.64;82.67;99887.34;5092187;28;20579;-75
2022/12/15 03:27:23;;;;;;;13.20;11.77;;;;;;;-5.62;82.67;99883.16;5093149;28;20311;-75
2022/12/15 03:29:50;;;;;;;12.47;11.17;;;;;;;-5.53;82.36;99875.00;5093900;28;20656;-76
2022/12/15 03:32:17;;;;;;;12.17;10.93;;;;;;;-5.47;81.80;99873.56;5092478;28;20214;-76
2022/12/15 03:34:44;;;;;;;13.37;11.47;;;;;;;-5.54;82.04;99874.13;5092856;28;20695;-76
2022/12/15 03:37:12;;;;;;;13.30;11.13;;;;;;;-5.67;82.94;99871.94;5092626;28;20307;-75
2022/12/15 03:39:39;;;;;;;11.80;10.57;;;;;;;-5.60;82.81;99851.91;5092456;28;20637;-75
2022/12/15 03:42:05;;;;;;;11.50;10.33;;;;;;;-5.45;82.24;99858.34;5092182;28;20682;-75
2022/12/15 03:44:32;;;;;;;11.70;10.53;;;;;;;-5.33;81.93;99871.53;5091707;28;20622;-75
2022/12/15 03:46:58;;;;;;;11.53;9.93;;;;;;;-5.25;81.53;99882.81;5091170;28;20224;-76
2022/12/15 03:49:25;;;;;;;12.00;10.57;;;;;;;-5.20;81.11;99891.47;5091337;28;20208;-76
2022/12/15 03:51:52;;;;;;;11.60;10.43;;;;;;;-5.13;81.53;99912.94;5091623;28;20208;-76
2022/12/15 03:54:20;;;;;;;11.13;9.93;;;;;;;-5.09;81.39;99916.44;5091349;28;20340;-76
2022/12/15 03:56:47;;;;;;;12.30;11.10;;;;;;;-5.15;81.30;99924.72;5091297;28;20267;-76
2022/12/15 03:59:14;;;;;;;11.70;10.60;;;;;;;-5.09;81.32;99935.13;5091231;28;20212;-76
2022/12/15 04:01:46;;;;;;;11.20;10.10;;;;;;;-5.16;81.02;99947.56;5091249;28;20204;-75
2022/12/15 04:04:13;;;;;;;12.40;11.10;;;;;;;-5.18;81.43;99953.44;5093764;28;20708;-75
2022/12/15 04:06:39;;;;;;;11.83;10.03;;;;;;;-5.10;81.57;99953.72;5094919;28;20582;-76
2022/12/15 04:09:06;;;;;;;13.60;10.30;;;;;;;-5.09;80.61;99963.09;5094826;28;20216;-76
2022/12/15 04:11:33;;;;;;;11.17;10.07;;;;;;;-5.07;80.74;99966.56;5094670;28;20204;-76
2022/12/15 04:14:00;;;;;;;13.60;10.50;;;;;;;-5.16;81.65;99962.81;5094845;28;20207;-75
2022/12/15 04:16:26;;;;;;;12.67;11.37;;;;;;;-5.27;81.92;99949.69;5094813;28;20298;-76
2022/12/15 04:21:33;;;;;;;13.47;10.50;;;;;;;-5.24;81.97;99945.59;5093417;28;20663;-76
2022/12/15 05:32:25;;;;;;;11.43;10.20;;;;;;;-4.77;78.50;100033.81;5093314;28;20216;-75
2022/12/15 05:34:52;;;;;;;10.87;9.17;;;;;;;-4.81;79.50;100053.19;5093365;28;20212;-75
2022/12/15 05:37:18;;;;;;;10.83;9.73;;;;;;;-4.81;80.45;100045.56;5093104;28;20240;-76
2022/12/15 05:39:45;;;;;;;10.30;9.23;;;;;;;-4.87;80.97;100030.91;5093039;28;20215;-76
2022/12/15 05:42:11;;;;;;;10.33;9.13;;;;;;;-4.91;80.97;100023.97;5092750;28;20204;-76
2022/12/15 05:44:38;;;;;;;14.20;10.27;;;;;;;-4.90;80.69;100028.25;5092877;28;20215;-76
2022/12/15 05:47:04;;;;;;;10.83;9.80;;;;;;;-4.92;80.43;100034.09;5093208;28;20231;-76
2022/12/15 05:49:32;;;;;;;11.90;10.13;;;;;;;-4.86;80.22;100039.41;5092730;28;20208;-76
2022/12/15 05:51:59;;;;;;;11.07;9.47;;;;;;;-4.81;80.79;100036.22;5092892;28;20200;-75
2022/12/15 05:54:25;;;;;;;12.47;11.17;;;;;;;-4.82;80.66;100031.94;5092744;28;20204;-76
2022/12/15 05:56:52;;;;;;;11.10;9.93;;;;;;;-4.92;80.53;100029.88;5092543;28;20223;-76
2022/12/15 05:59:19;;;;;;;13.43;9.63;;;;;;;-4.89;80.83;100037.63;5092707;28;20226;-75
2022/12/15 06:01:45;;;;;;;12.03;9.83;;;;;;;-4.87;81.57;100024.97;5092528;28;20211;-76
2022/12/15 06:04:12;;;;;;;10.30;9.33;;;;;;;-4.83;80.42;100026.81;5093108;28;20251;-76
2022/12/15 06:06:40;;;;;;;10.97;9.87;;;;;;;-4.87;80.46;100036.00;5092637;28;20212;-76
2022/12/15 06:09:07;;;;;;;10.43;9.43;;;;;;;-4.81;80.54;100043.88;5092408;28;20687;-76
2022/12/15 06:11:34;;;;;;;11.47;10.33;;;;;;;-4.80;80.73;100042.19;5092124;28;20204;-76
2022/12/15 06:14:00;;;;;;;11.67;9.77;;;;;;;-4.81;80.65;100054.03;5092698;28;20204;-76
2022/12/15 06:16:27;;;;;;;11.30;10.10;;;;;;;-4.72;80.32;100047.53;5092555;28;20208;-76
2022/12/15 06:18:56;;;;;;;11.83;10.60;;;;;;;-4.73;80.71;100048.38;5092652;28;20213;-75
2022/12/15 06:21:25;;;;;;;13.00;10.37;;;;;;;-4.60;80.47;100061.59;5092099;28;20208;-75
2022/12/15 06:23:54;;;;;;;11.40;10.20;;;;;;;-4.53;79.56;100072.00;5092298;28;20242;-76
2022/12/15 06:26:24;;;;;;;11.47;10.37;;;;;;;-4.56;80.79;100082.06;5092054;28;20580;-76
2022/12/15 06:28:51;;;;;;;13.90;10.50;;;;;;;-4.50;80.08;100080.63;5092095;28;20593;-76
2022/12/15 06:31:21;;;;;;;12.47;10.90;;;;;;;-4.43;80.04;100071.50;5092079;28;20215;-76
2022/12/15 06:33:48;;;;;;;11.77;10.67;;;;;;;-4.34;79.85;100086.25;5092353;28;20215;-76
2022/12/15 06:36:16;;;;;;;11.43;10.33;;;;;;;-4.40;80.25;100079.25;5092145;28;20200;-76
2022/12/15 06:38:43;;;;;;;11.60;10.40;;;;;;;-4.34;80.58;100081.16;5091866;28;20239;-75
2022/12/15 06:41:13;;;;;;;12.37;10.20;;;;;;;-4.29;80.29;100080.50;5092017;28;20244;-75
2022/12/15 06:43:40;;;;;;;11.27;10.07;;;;;;;-4.20;80.02;100091.03;5092106;28;20227;-76
2022/12/15 06:46:07;;;;;;;13.17;10.23;;;;;;;-4.17;79.91;100100.44;5092061;28;20212;-75
2022/12/15 06:48:34;;;;;;;12.10;10.80;;;;;;;-4.16;79.04;100106.41;5091676;28;20228;-76
2022/12/15 06:51:02;;;;;;;11.23;10.17;;;;;;;-4.20;79.98;100121.59;5091935;28;20207;-76
2022/12/15 06:53:29;;;;;;;12.23;10.73;;;;;;;-4.17;79.34;100125.06;5092028;28;20735;-75
2022/12/15 06:56:00;;;;;;;11.23;10.03;;;;;;;-4.27;79.89;100129.84;5092020;28;20211;-76
2022/12/15 06:58:28;;;;;;;12.30;10.50;;;;;;;-4.29;80.47;100128.06;5091845;28;20236;-76
2022/12/15 07:00:55;;;;;;;13.57;11.17;;;;;;;-4.31;80.28;100128.00;5091524;28;20215;-76
2022/12/15 07:03:21;;;;;;;11.17;10.07;;;;;;;-4.42;81.30;100109.78;5092044;28;20280;-76
2022/12/15 07:05:48;;;;;;;11.80;10.67;;;;;;;-4.33;81.70;100093.09;5091850;28;20577;-76
2022/12/15 07:08:16;;;;;;;11.53;10.33;;;;;;;-4.36;81.31;100080.22;5091945;28;20231;-76
2022/12/15 07:10:44;;;;;;;11.27;9.97;;;;;;;-4.29;81.37;100077.94;5092117;28;20208;-76
2022/12/15 07:13:11;;;;;;;12.67;11.37;;;;;;;-4.34;81.93;100070.97;5091911;28;20669;-75
2022/12/15 07:15:40;;;;;;;13.57;11.33;;;;;;;-4.42;81.81;100061.38;5091688;28;20286;-76
2022/12/15 07:18:07;;;;;;;13.47;11.73;;;;;;;-4.36;82.54;100053.09;5091847;28;20224;-76
2022/12/15 07:20:33;;;;;;;13.13;11.83;;;;;;;-4.42;82.24;100053.75;5092581;28;20577;-77
2022/12/15 07:23:02;;;;;;;15.13;12.00;;;;;;;-4.33;82.06;100048.09;5094472;28;20215;-77
2022/12/15 07:25:29;;;;;;;14.20;11.07;;;;;;;-4.33;82.48;100050.63;5094236;28;20204;-77
2022/12/15 07:27:55;;;;;;;12.10;10.80;;;;;;;-4.32;82.72;100049.84;5094388;28;20251;-77
2022/12/15 07:30:22;;;;;;;14.43;11.30;;;;;;;-4.42;82.98;100055.41;5093688;28;20215;-77
2022/12/15 07:32:50;;;;;;;14.40;11.83;;;;;;;-4.41;83.22;100050.38;5094763;28;20212;-77
2022/12/15 07:35:16;;;;;;;12.67;11.40;;;;;;;-4.42;83.46;100035.03;5094356;28;20204;-77
2022/12/15 07:37:43;;;;;;;13.03;11.37;;;;;;;-4.52;84.20;100025.34;5095080;28;20232;-77
2022/12/15 07:40:10;;;;;;;12.97;11.37;;;;;;;-4.61;84.87;100018.25;5098389;28;20208;-77
2022/12/15 07:42:37;;;;;;;12.73;11.43;;;;;;;-4.48;85.76;99977.13;5098504;28;20577;-78
2022/12/15 07:45:05;;;;;;;17.00;12.07;;;;;;;-4.35;85.84;99949.50;5100797;28;20227;-78
2022/12/15 07:47:32;;;;;;;12.37;10.73;;;;;;;-4.37;84.90;99954.53;5099784;28;20224;-78
2022/12/15 07:50:00;;;;;;;13.77;11.60;;;;;;;-4.37;85.73;99956.22;5099269;28;20208;-78
2022/12/15 07:52:26;;;;;;;12.50;11.17;;;;;;;-4.30;85.71;99933.56;5100481;28;20211;-78
2022/12/15 07:54:53;;;;;;;12.47;11.17;;;;;;;-4.21;85.46;99940.63;5099326;28;20214;-77
2022/12/15 07:57:19;;;;;;;12.43;11.27;;;;;;;-4.29;85.18;99954.81;5097650;28;20227;-77
2022/12/15 07:59:46;;;;;;;13.57;11.67;;;;;;;-4.28;85.52;99952.31;5097097;28;20210;-82
2022/12/15 08:02:13;;;;;;;13.60;11.97;;;;;;;-4.22;84.99;99961.84;5101125;28;20208;-78
2022/12/15 08:04:40;;;;;;;13.00;10.97;;;;;;;-4.22;85.57;99964.38;5099314;28;20235;-78
2022/12/15 08:07:09;;;;;;;14.13;12.13;;;;;;;-4.13;85.75;99951.94;5099947;28;20705;-79
2022/12/15 08:09:35;;;;;;;12.67;11.43;;;;;;;-4.21;85.76;99959.31;5100304;28;20219;-78
2022/12/15 08:12:02;;;;;;;13.30;11.90;;;;;;;-4.14;85.96;99962.06;5099727;28;20208;-78
2022/12/15 08:14:28;;;;;;;16.40;13.23;;;;;;;-4.16;85.58;99967.13;5100103;28;20665;-78
2022/12/15 08:16:55;;;;;;;14.37;11.57;;;;;;;-4.17;85.98;99975.59;5099469;28;20716;-78
2022/12/15 08:19:21;;;;;;;12.13;10.93;;;;;;;-4.09;85.64;99968.19;5098832;28;20204;-77
2022/12/15 08:21:48;;;;;;;15.27;12.13;;;;;;;-4.00;86.09;99971.03;5097944;28;20211;-79
2022/12/15 08:24:16;;;;;;;12.60;11.30;;;;;;;-4.02;85.66;99968.44;5099139;28;20228;-78
2022/12/15 08:26:44;;;;;;;15.87;11.53;;;;;;;-4.09;85.86;99986.03;5097564;28;20241;-78
2022/12/15 08:29:12;;;;;;;12.57;11.37;;;;;;;-4.06;85.94;99968.31;5093752;28;20562;-78
2022/12/15 08:31:40;;;;;;;15.83;12.30;;;;;;;-3.95;85.93;99960.97;5086482;28;20653;-77
2022/12/15 08:34:07;;;;;;;15.30;11.73;;;;;;;-4.00;85.59;99969.34;5085351;28;20627;-79
2022/12/15 08:36:34;;;;;;;16.27;13.13;;;;;;;-3.90;85.74;99967.97;5086905;28;20204;-78
2022/12/15 08:39:01;;;;;;;14.93;12.13;;;;;;;-3.90;85.72;99977.31;5087462;28;20201;-79
2022/12/15 08:41:31;;;;;;;12.77;10.80;;;;;;;-3.86;85.51;99974.03;5085489;28;20619;-78
2022/12/15 08:43:59;;;;;;;13.00;10.80;;;;;;;-3.81;85.60;99978.44;5086243;28;20220;-78
2022/12/15 08:46:27;;;;;;;15.47;12.90;;;;;;;-3.86;85.52;99987.63;5084099;28;20208;-79
2022/12/15 08:48:54;;;;;;;13.77;12.40;;;;;;;-3.72;85.31;99997.41;5087223;28;20195;-79
2022/12/15 08:51:23;;;;;;;13.20;11.90;;;;;;;-3.69;85.12;100000.91;5086973;28;20565;-79
2022/12/15 08:53:49;;;;;;;12.77;11.57;;;;;;;-3.66;85.59;100003.56;5087753;28;20208;-79
2022/12/15 08:56:17;;;;;;;14.40;13.00;;;;;;;-3.72;85.76;99999.97;5087118;28;20193;-79
2022/12/15 08:58:47;;;;;;;15.60;12.17;;;;;;;-3.70;85.64;99988.13;5087733;28;20315;-79
2022/12/15 09:01:16;;;;;;;13.47;12.07;;;;;;;-3.64;85.54;99988.31;5089748;28;20216;-79
2022/12/15 09:03:43;;;;;;;12.97;11.63;;;;;;;-3.58;86.15;99992.75;5086244;28;20216;-78
2022/12/15 09:06:16;;;;;;;15.40;11.93;;;;;;;-3.61;85.80;99991.81;5087624;28;20634;-79
2022/12/15 09:08:44;;;;;;;14.50;12.87;;;;;;;-3.53;86.14;99989.47;5087060;28;20220;-79
2022/12/15 09:11:10;;;;;;;16.97;13.10;;;;;;;-3.56;85.73;99993.66;5083817;28;20209;-78
2022/12/15 09:13:38;;;;;;;17.17;11.70;;;;;;;-3.63;86.36;99990.03;5086310;28;20562;-77
2022/12/15 09:16:08;;;;;;;13.70;12.27;;;;;;;-3.55;86.41;99975.81;5084101;28;20197;-77
2022/12/15 09:18:34;;;;;;;13.50;12.20;;;;;;;-3.41;86.23;99973.69;5083752;28;20226;-77
2022/12/15 09:21:01;;;;;;;13.10;11.73;;;;;;;-3.34;86.29;99988.38;5084165;28;20217;-77
2022/12/15 09:23:28;;;;;;;14.03;12.00;;;;;;;-3.27;86.13;99995.38;5085205;28;20196;-78
2022/12/15 09:25:59;;;;;;;12.50;11.20;;;;;;;-3.19;85.44;100005.81;5085709;28;20199;-77
2022/12/15 09:28:26;;;;;;;12.40;11.20;;;;;;;-3.14;85.88;100006.81;5085156;28;20217;-77
2022/12/15 09:30:52;;;;;;;13.50;11.57;;;;;;;-3.17;86.30;99993.97;5084138;28;20204;-78
2022/12/15 09:33:21;;;;;;;12.37;11.10;;;;;;;-3.20;86.53;99994.72;5086853;28;20199;-77
2022/12/15 09:35:50;;;;;;;13.37;12.03;;;;;;;-3.19;85.44;99998.16;5084920;28;20202;-77
2022/12/15 09:38:16;;;;;;;13.23;11.93;;;;;;;-3.14;85.98;100011.91;5086542;28;20216;-78
2022/12/15 09:40:43;;;;;;;12.90;11.63;;;;;;;-3.15;85.60;100016.97;5085883;28;20567;-77
2022/12/15 09:43:16;;;;;;;14.30;12.10;;;;;;;-3.13;85.63;100012.78;5086264;28;20200;-77
2022/12/15 09:45:49;;;;;;;13.47;11.70;;;;;;;-3.00;85.36;100025.94;5083317;28;20227;-77
2022/12/15 09:48:19;;;;;;;13.63;11.70;;;;;;;-3.01;85.29;100031.88;5085445;28;20219;-77
2022/12/15 09:50:50;;;;;;;13.50;12.13;;;;;;;-3.04;85.70;100036.03;5082588;28;20203;-77
2022/12/15 09:53:19;;;;;;;12.90;11.80;;;;;;;-2.97;84.89;100032.84;5084249;28;20201;-77
2022/12/15 09:55:49;;;;;;;13.97;12.47;;;;;;;-2.84;84.94;100046.81;5086513;28;20196;-77
2022/12/15 09:58:26;;;;;;;14.43;12.97;;;;;;;-2.87;85.70;100046.75;5084823;28;20225;-77
2022/12/15 10:00:56;;;;;;;18.40;13.00;;;;;;;-2.72;84.90;100053.97;5082404;28;20200;-77
2022/12/15 10:03:39;;;;;;;13.77;11.43;;;;;;;-2.63;84.99;100069.56;5085680;28;20339;-77
2022/12/15 10:06:10;;;;;;;17.30;13.43;;;;;;;-2.64;85.20;100072.94;5082802;28;20207;-77
2022/12/15 10:08:41;;;;;;;20.70;15.87;;;;;;;-2.61;85.04;100073.88;5083412;28;20708;-77
2022/12/15 10:11:20;;;;;;;14.33;12.80;;;;;;;-2.50;84.38;100081.84;5083949;28;20197;-77
2022/12/15 10:13:52;;;;;;;13.00;11.73;;;;;;;-2.49;84.16;100080.16;5076027;28;20204;-78
2022/12/15 10:16:26;;;;;;;13.30;11.93;;;;;;;-2.40;84.36;100095.75;5090613;28;20204;-77
2022/12/15 10:19:05;;;;;;;14.87;12.23;;;;;;;-2.33;83.91;100104.47;5093419;28;20224;-76
2022/12/15 10:21:35;;;;;;;13.73;11.70;;;;;;;-2.33;83.54;100109.56;4383780;28;10000703;-77
2022/12/15 10:24:14;;;;;;;13.17;11.90;;;;;;;-2.40;83.04;100134.97;5090201;28;20525;-76
2022/12/15 10:26:43;;;;;;;13.90;12.17;;;;;;;-2.31;83.45;100136.03;5088852;28;20223;-76
2022/12/15 10:29:21;;;;;;;13.53;12.13;;;;;;;-2.27;83.06;100141.28;5090301;28;20669;-78
2022/12/15 10:31:52;;;;;;;15.90;14.45;;;;;;;-2.20;82.75;100145.75;5090482;28;20428;-80
2022/12/15 10:34:26;;;;;;;15.90;12.87;;;;;;;-2.10;83.11;100158.75;5090421;28;20223;-78
2022/12/15 10:36:54;;;;;;;13.40;12.07;;;;;;;-2.08;82.79;100158.00;5092534;28;20240;-78
2022/12/15 10:39:22;;;;;;;12.50;11.23;;;;;;;-2.05;83.16;100160.63;5092332;28;20215;-79
2022/12/15 10:42:11;;;;;;;14.47;13.07;;;;;;;-2.11;83.21;100174.94;5090698;28;20232;-80
2022/12/15 10:44:40;;;;;;;12.37;11.17;;;;;;;-1.98;83.49;100161.69;5091737;28;20261;-79
2022/12/15 10:47:10;;;;;;;14.57;11.90;;;;;;;-2.03;83.74;100161.53;5091003;28;20228;-80
2022/12/15 10:49:46;;;;;;;12.77;11.57;;;;;;;-2.09;83.89;100155.41;5090894;28;20246;-80
2022/12/15 10:52:23;;;;;;;12.90;11.60;;;;;;;-2.08;83.81;100162.22;5091614;28;20218;-79
2022/12/15 10:54:51;;;;;;;12.20;11.00;;;;;;;-2.02;83.98;100137.72;5090637;28;20207;-79
2022/12/15 10:57:21;;;;;;;15.87;12.53;;;;;;;-1.91;84.42;100132.88;5091821;28;20232;-79
2022/12/15 10:59:48;;;;;;;12.67;11.47;;;;;;;-1.92;84.04;100131.16;5090806;28;20223;-79
2022/12/15 11:02:35;;;;;;;13.13;11.73;;;;;;;-1.86;83.66;100126.19;5091357;28;20911;-80
2022/12/15 11:05:03;;;;;;;13.23;12.03;;;;;;;-1.79;83.88;100129.75;5091905;28;20318;-79
2022/12/15 11:07:36;;;;;;;16.37;12.17;;;;;;;-1.76;84.16;100127.28;5090856;28;20887;-80
2022/12/15 11:10:15;;;;;;;12.80;11.50;;;;;;;-1.77;83.73;100135.78;5091175;28;20191;-77
2022/12/15 11:12:50;;;;;;;13.50;12.10;;;;;;;-1.81;83.48;100151.88;5093774;28;20207;-79
2022/12/15 11:15:40;;;;;;;12.87;11.57;;;;;;;-1.74;83.75;100141.00;5095208;28;20199;-78
2022/12/15 11:18:14;;;;;;;12.47;11.23;;;;;;;-1.78;83.54;100143.41;5096078;28;20231;-78
2022/12/15 11:20:45;;;;;;;13.60;12.13;;;;;;;-1.73;83.43;100144.41;5096651;28;20211;-78
2022/12/15 11:23:19;;;;;;;14.27;10.93;;;;;;;-1.63;83.14;100152.34;5095560;28;20204;-78
2022/12/15 11:25:50;;;;;;;13.30;10.93;;;;;;;-1.57;82.90;100159.31;5094822;28;20223;-78
2022/12/15 11:28:22;;;;;;;11.63;10.63;;;;;;;-1.45;82.91;100169.91;5094810;28;20228;-78
2022/12/15 11:30:57;;;;;;;11.57;10.33;;;;;;;-1.34;82.80;100182.09;5094508;28;20212;-78
2022/12/15 11:33:23;;;;;;;11.23;10.23;;;;;;;-1.23;82.97;100188.31;5094142;28;20203;-78
2022/12/15 11:36:06;;;;;;;11.23;10.13;;;;;;;-1.12;83.01;100175.78;5092672;28;20208;-76
2022/12/15 11:38:42;;;;;;;11.47;10.37;;;;;;;-1.33;83.85;100168.44;5091707;28;20231;-77
2022/12/15 11:41:16;;;;;;;11.50;10.40;;;;;;;-1.39;84.50;100141.00;5092131;28;20207;-77
2022/12/15 11:44:01;;;;;;;10.10;9.13;;;;;;;-1.30;84.58;100131.00;5092380;28;20218;-76
2022/12/15 11:46:36;;;;;;;10.27;8.97;;;;;;;-1.34;84.03;100130.88;5093036;28;20196;-76
2022/12/15 11:49:39;;;;;;;12.90;9.90;;;;;;;-1.25;83.72;100144.78;5092672;28;20211;-76
2022/12/15 11:52:17;;;;;;;13.10;9.50;;;;;;;-1.18;84.14;100144.91;5058037;28;20203;-76
2022/12/15 11:54:53;;;;;;;11.00;9.83;;;;;;;-1.20;83.72;100140.63;5091948;28;20592;-76
2022/12/15 11:57:46;;;;;;;9.50;8.40;;;;;;;-1.19;83.36;100149.16;5092027;28;20234;-76
2022/12/15 12:00:15;;;;;;;11.37;9.50;;;;;;;-1.12;82.91;100163.84;5089469;28;20200;-76
2022/12/15 12:03:01;;;;;;;10.20;9.20;;;;;;;-1.06;81.97;100171.69;5092328;28;20219;-76
2022/12/15 12:05:47;;;;;;;10.03;9.03;;;;;;;-1.06;83.88;100168.25;5091959;28;20251;-76
2022/12/15 12:08:28;;;;;;;10.30;9.23;;;;;;;-1.13;83.37;100161.25;5092170;28;20606;-76
2022/12/15 12:11:04;;;;;;;10.77;9.77;;;;;;;-1.03;82.84;100176.88;5091782;28;20207;-76
2022/12/15 12:13:40;;;;;;;10.37;9.27;;;;;;;-0.89;82.67;100184.00;5091896;28;20203;-76
2022/12/15 12:16:21;;;;;;;11.23;9.63;;;;;;;-0.92;82.27;100186.50;5092284;28;20669;-76
2022/12/15 12:18:55;;;;;;;11.67;10.53;;;;;;;-0.86;82.12;100172.13;5091705;28;20232;-76
2022/12/15 12:21:27;;;;;;;11.77;10.53;;;;;;;-0.85;81.33;100202.06;5091438;28;20234;-76
2022/12/15 12:24:00;;;;;;;13.57;10.97;;;;;;;-0.80;81.95;100214.97;5091434;28;20207;-76
2022/12/15 12:26:36;;;;;;;14.23;12.13;;;;;;;-0.83;82.15;100202.97;5091815;28;20236;-76
2022/12/15 12:29:11;;;;;;;14.20;11.80;;;;;;;-0.76;82.05;100195.41;5092058;28;20203;-76
2022/12/15 12:31:46;;;;;;;12.47;11.07;;;;;;;-0.78;81.90;100189.41;5091559;28;20672;-76
2022/12/15 12:34:21;;;;;;;11.03;9.93;;;;;;;-0.77;82.26;100201.34;5091541;28;20208;-76
2022/12/15 12:36:50;;;;;;;12.07;10.43;;;;;;;-0.82;81.55;100204.69;5091197;28;20212;-76
2022/12/15 12:39:20;;;;;;;13.63;9.53;;;;;;;-0.87;81.68;100213.97;5090998;28;20258;-76
2022/12/15 12:41:56;;;;;;;11.60;10.03;;;;;;;-0.87;82.33;100213.97;5091116;28;20200;-76
2022/12/15 12:44:30;;;;;;;16.33;10.13;;;;;;;-0.90;81.73;100203.63;5090931;28;20206;-76
2022/12/15 12:46:58;;;;;;;10.20;9.20;;;;;;;-0.87;81.73;100208.84;5091357;28;20239;-76
2022/12/15 12:49:28;;;;;;;10.50;9.40;;;;;;;-0.94;80.96;100219.78;5091206;28;20295;-76
2022/12/15 12:51:58;;;;;;;10.63;9.53;;;;;;;-0.86;81.40;100225.94;5090912;28;20239;-76
2022/12/15 12:54:46;;;;;;;9.73;8.83;;;;;;;-0.83;82.58;100209.78;5091099;28;20247;-76
2022/12/15 12:57:38;;;;;;;12.27;10.97;;;;;;;-0.89;81.55;100204.50;5090788;28;20231;-76
2022/12/15 13:00:22;;;;;;;10.57;9.57;;;;;;;-0.91;81.47;100217.31;5090526;28;20208;-76
2022/12/15 13:03:16;;;;;;;10.33;9.33;;;;;;;-0.90;81.28;100229.25;5091175;28;20216;-76
2022/12/15 13:05:44;;;;;;;12.30;9.40;;;;;;;-0.89;81.14;100245.50;5090507;28;20232;-75
2022/12/15 13:08:43;;;;;;;10.87;9.63;;;;;;;-0.91;82.05;100221.53;5090750;28;20228;-76
2022/12/15 13:11:56;;;;;;;10.33;9.30;;;;;;;-0.87;80.22;100219.09;5090812;28;20208;-77
2022/12/15 13:14:34;;;;;;;9.47;8.43;;;;;;;-0.76;79.64;100252.66;5091213;28;20208;-76
2022/12/15 13:17:04;;;;;;;9.50;8.50;;;;;;;-0.78;80.26;100256.88;5090677;28;20717;-76
2022/12/15 13:20:10;;;;;;;9.93;8.93;;;;;;;-0.71;78.99;100265.59;5090439;28;20212;-76
2022/12/15 13:22:37;;;;;;;10.60;9.57;;;;;;;-0.66;78.52;100294.75;5090018;28;20559;-77
2022/12/15 13:25:39;;;;;;;9.87;8.87;;;;;;;-0.62;79.09;100305.09;5090241;28;20712;-76
2022/12/15 13:28:22;;;;;;;9.40;8.40;;;;;;;-0.61;79.20;100306.00;5084998;28;20235;-76
2022/12/15 13:31:24;;;;;;;14.53;10.20;;;;;;;-0.50;78.19;100317.34;5090044;28;20208;-76
2022/12/15 13:33:56;;;;;;;9.07;8.27;;;;;;;-0.59;79.85;100312.03;5090220;28;20208;-76
2022/12/15 13:37:02;;;;;;;9.23;8.33;;;;;;;-0.56;78.72;100321.47;5089823;28;20670;-75
2022/12/15 13:39:56;;;;;;;10.87;8.43;;;;;;;-0.48;78.11;100330.22;5089278;28;20212;-76
2022/12/15 13:42:33;;;;;;;11.50;7.80;;;;;;;-0.53;78.53;100329.25;5090401;28;20257;-75
2022/12/15 13:45:35;;;;;;;8.90;8.03;;;;;;;-0.53;78.42;100332.69;5090543;28;20224;-77
2022/12/15 13:48:12;;;;;;;9.53;8.30;;;;;;;-0.49;78.63;100333.63;5090725;28;20222;-75
2022/12/15 13:50:46;;;;;;;9.60;8.00;;;;;;;-0.54;79.25;100320.66;5090295;28;20208;-76
2022/12/15 13:53:18;;;;;;;9.20;8.37;;;;;;;-0.57;79.50;100305.22;5089786;28;20839;-76
2022/12/15 13:56:00;;;;;;;13.13;8.80;;;;;;;-0.61;78.95;100318.81;5089803;28;20215;-76
2022/12/15 13:58:31;;;;;;;9.40;8.50;;;;;;;-0.62;80.18;100301.69;5090098;28;20235;-76